• Join FlightAware (Why Join?)
  • Login
  • US Flag 
04:08AM EDT


 

Airport Tracker/Info


-or-


 

Live Flight TrackerFlight Track Log ✈ RPA3392 ✈ 16-Jun-2013 ✈ KMSP - KDCA

Flight Track Log - Related Links

Times and Time Zones

All times are in EDT time to prevent confusion due to time zone crossing. See the RPA3392 flight status page for this flight to view local times or setup timezone preferences in your user account.

Time Position Orientation Groundspeed Altitude Reporting Facility
EDT Latitude Longitude Course Direction KTS MPH feet Rate Location/Type
05:50PM 44.9167 -93.2333 117° Southeast 185 213 2,600  Level Minneapolis TRACON
05:50PM 44.9444 -93.2367 355° North 194 223 3,700 1,860 Climbing Minneapolis Center
05:51PM 44.9944 -93.1706 43° Northeast 261 300 5,700 2,460 Climbing Minneapolis Center
05:52PM 44.7272 -92.6589 113° Southeast  Level Estimated
05:52PM 45.0278 -93.0672 65° Northeast 301 346 8,800  Level Minneapolis Center
05:53PM 44.6709 -92.5308 122° Southeast  Level FlightAware Approximate
05:53PM 44.9994 -92.9464 108° East 331 381 11,200  Level Minneapolis Center
05:54PM 44.6167 -92.3901 90° East  Level FlightAware Approximate
05:54PM 44.9214 -92.8156 130° Southeast 361 415 14,000  Level Minneapolis Center
05:55PM 44.5702 -92.2554 117° Southeast  Level FlightAware Approximate
05:55PM 44.8525 -92.7006 130° Southeast 381 438 16,300  Level Minneapolis Center
05:56PM 44.7806 -92.5814 130° Southeast 396 456 18,500 2,040 Climbing Minneapolis Center
05:57PM 44.7083 -92.4617 130° Southeast 401 461 20,600 1,860 Climbing Minneapolis Center
05:59PM 44.6325 -92.3369 130° Southeast 415 478 22,400 1,140 Climbing Minneapolis Center
06:00PM 44.5550 -92.2078 130° Southeast 430 495 23,000 780 Climbing Minneapolis Center
06:01PM 44.4639 -92.0325 126° Southeast 461 531 24,100 1,140 Climbing Minneapolis Center
06:02PM 44.3886 -91.8867 126° Southeast 462 532 25,400 1,200 Climbing Minneapolis Center
06:03PM 44.3219 -91.7269 120° Southeast 477 549 26,600 1,080 Climbing Minneapolis Center
06:04PM 44.2592 -91.5581 117° Southeast 489 563 27,700 960 Climbing Minneapolis Center
06:05PM 44.1925 -91.3886 119° Southeast 496 571 28,700 1,080 Climbing Minneapolis Center
06:06PM 44.1183 -91.1939 118° Southeast 507 583 30,000 1,200 Climbing Minneapolis Center
06:07PM 44.0514 -91.0219 118° Southeast 509 586 31,200 1,020 Climbing Minneapolis Center
06:08PM 43.9850 -90.8489 118° Southeast 510 587 32,200 960 Climbing Minneapolis Center
06:09PM 43.9172 -90.6781 119° Southeast 509 586 33,200 960 Climbing Minneapolis Center
06:10PM 43.8464 -90.4981 119° Southeast 507 583 34,200 840 Climbing Minneapolis Center
06:11PM 43.7928 -90.2847 109° East 506 582 35,000 360 Climbing Minneapolis Center
06:12PM 43.7581 -90.0981 104° East 503 579 35,000  Level Chicago Center
06:13PM 43.7242 -89.9100 104° East 504 580 35,000  Level Chicago Center
06:14PM 43.6861 -89.7217 106° East 509 586 35,000  Level Chicago Center
06:15PM 43.6481 -89.5281 105° East 521 600 35,000  Level Chicago Center
06:16PM 43.6117 -89.3311 104° East 529 609 35,000  Level Chicago Center
06:17PM 43.5650 -89.0978 105° East 539 620 35,000  Level Chicago Center
06:18PM 43.5247 -88.8972 105° East 541 623 35,000  Level Chicago Center
06:19PM 43.4847 -88.6967 105° East 544 626 35,000  Level Chicago Center
06:20PM 43.4378 -88.4711 106° East 546 628 35,000  Level Chicago Center
06:21PM 43.3983 -88.2781 106° East 545 627 35,000  Level Chicago Center
06:22PM 43.3575 -88.0797 106° East 541 623 35,000  Level Chicago Center
06:23PM 43.3161 -87.8808 106° East 541 623 35,000  Level Chicago Center
06:24PM 43.2744 -87.6817 106° East 543 625 35,000  Level Chicago Center
06:25PM 43.2247 -87.4503 106° East 543 625 35,000  Level Chicago Center
06:26PM 43.1842 -87.2617 106° East 542 624 35,000  Level Chicago Center
06:27PM 43.1419 -87.0639 106° East 541 623 35,000  Level Chicago Center
06:28PM 43.0981 -86.8686 107° East 540 621 35,000  Level Chicago Center
06:30PM 43.0556 -86.6733 107° East 539 620 35,000  Level Chicago Center
06:31PM 43.0033 -86.4389 107° East 540 621 35,000  Level Chicago Center
06:32PM 42.9589 -86.2472 108° East 537 618 35,000  Level Chicago Center
06:33PM 42.9153 -86.0597 108° East 534 615 35,000  Level Chicago Center
06:34PM 42.8642 -85.8317 107° East 538 619 35,000  Level Chicago Center
06:35PM 42.8192 -85.6367 107° East 544 626 35,000  Level Chicago Center
06:36PM 42.7706 -85.4431 109° East 545 627 35,000  Level Chicago Center
06:37PM 42.7047 -85.2578 116° Southeast 544 626 35,000  Level Chicago Center
06:38PM 42.6392 -85.0722 116° Southeast 547 629 35,000  Level Chicago Center
06:39PM 42.5736 -84.8875 116° Southeast 545 627 35,000  Level Chicago Center
06:40PM 42.4942 -84.6661 116° Southeast 545 627 35,000  Level Chicago Center
06:41PM 42.4264 -84.4825 117° Southeast 547 629 35,000  Level Chicago Center
06:42PM 42.3775 -84.3556 118° Southeast 550 633 35,000  Level Cleveland Center
06:43PM 42.3125 -84.1747 116° Southeast 550 633 35,000  Level Cleveland Center
06:44PM 42.2450 -83.9942 117° Southeast 545 627 35,000  Level Cleveland Center
06:45PM 42.1792 -83.8167 117° Southeast 545 627 35,000  Level Cleveland Center
06:46PM 42.1111 -83.6397 117° Southeast 545 627 35,000  Level Cleveland Center
06:47PM 42.0347 -83.4431 118° Southeast 545 627 35,000  Level Cleveland Center
06:48PM 41.9553 -83.2833 124° Southeast 533 613 35,000  Level Cleveland Center
06:49PM 41.8772 -83.1406 126° Southeast 528 608 35,000  Level Cleveland Center
06:50PM 41.7850 -82.9642 125° Southeast 528 608 35,000  Level Cleveland Center
06:51PM 41.6964 -82.8106 128° Southeast 528 608 35,000  Level Cleveland Center
06:52PM 41.5967 -82.6794 135° Southeast 511 588 35,000  Level Cleveland Center
06:53PM 41.4950 -82.5486 136° Southeast 504 580 35,000  Level Cleveland Center
06:54PM 41.4050 -82.4297 135° Southeast 499 574 35,000  Level Cleveland Center
06:55PM 41.3050 -82.3025 136° Southeast 499 574 35,000 -600 Level Cleveland Center
06:56PM 41.2047 -82.1728 136° Southeast 499 574 33,800 -1,020 Descending Cleveland Center
06:57PM 41.1275 -82.0111 122° Southeast 504 580 33,000 -420 Descending Cleveland Center
06:58PM 41.0419 -81.8494 125° Southeast 522 601 33,000  Level Cleveland Center
06:59PM 40.9622 -81.6939 124° Southeast 522 601 33,000  Level Cleveland Center
07:00PM 40.8614 -81.5686 137° Southeast 505 581 33,000 -600 Level Cleveland Center
07:01PM 40.7558 -81.4464 139° Southeast 499 574 31,900 -1,020 Descending Cleveland Center
07:02PM 40.6506 -81.3275 139° Southeast 504 580 31,000 -480 Descending Cleveland Center
07:03PM 40.5492 -81.2061 138° Southeast 504 580 31,000  Level Cleveland Center
07:04PM 40.4433 -81.0878 140° Southeast 499 574 31,000  Level Cleveland Center
07:05PM 40.3356 -80.9672 140° Southeast 504 580 31,000  Level Cleveland Center
07:06PM 40.2294 -80.8494 140° Southeast 504 580 31,000  Level Cleveland Center
07:07PM 40.1256 -80.7297 139° Southeast 504 580 31,000  Level Cleveland Center
07:08PM 40.0172 -80.6103 140° Southeast 504 580 31,000  Level Cleveland Center
07:09PM 39.9086 -80.4911 140° Southeast 504 580 31,000  Level Cleveland Center
07:10PM 39.8003 -80.3750 141° Southeast 510 587 31,000  Level Cleveland Center
07:11PM 39.6936 -80.2567 139° Southeast 505 581 31,000  Level Cleveland Center
07:12PM 39.5869 -80.1386 140° Southeast 505 581 31,000  Level Cleveland Center
07:13PM 39.3939 -79.9317 140° Southeast 487 560 31,000  Level Washington Center
07:14PM 39.3050 -79.7894 129° Southeast 487 560 31,000  Level Washington Center
07:15PM 39.2778 -79.6083 101° East 509 586 31,000  Level Washington Center
07:16PM 39.2647 -79.4331 95° East 496 571 31,000 -420 Level Washington Center
07:17PM 39.2497 -79.2475 96° East 496 571 30,200 -1,740 Descending Washington Center
07:18PM 39.2342 -79.0725 96° East 501 577 27,500 -2,580 Descending Washington Center
07:19PM 39.2200 -78.9083 96° East 493 567 25,000 -2,460 Descending Washington Center
07:20PM 39.2014 -78.7467 98° East 467 537 22,700 -2,400 Descending Washington Center
07:21PM 39.1867 -78.5908 97° East 450 518 20,400 -2,340 Descending Washington Center
07:22PM 39.1736 -78.4458 97° East 429 494 18,100 -1,980 Descending Washington Center
07:23PM 39.1478 -78.2922 102° East 406 467 16,400 -1,380 Descending Washington Center
07:24PM 39.1133 -78.1572 108° East 394 453 15,400 -1,080 Descending Washington Center
07:25PM 39.0783 -78.0303 110° East 382 440 14,300 -1,200 Descending Washington Center
07:26PM 39.0475 -77.9036 107° East 377 434 13,100 -1,500 Descending Washington Center
07:27PM 39.0203 -77.7958 108° East 362 417 11,300 -1,080 Descending Washington Center
07:28PM 38.9872 -77.6694 109° East 342 394 11,000 -720 Descending Washington Center
07:29PM 38.9597 -77.5750 111° Southeast 318 366 9,900 -1,440 Descending Washington Center
07:30PM 38.9167 -77.4500 114° Southeast 318 366 8,100 -1,620 Descending Potomac TRACON
07:31PM 38.8667 -77.3667 128° Southeast 302 348 6,700 -1,080 Descending Potomac TRACON
07:32PM 38.8333 -77.2667 113° Southeast 305 351 6,000 -480 Descending Potomac TRACON
07:33PM 38.8000 -77.1833 117° Southeast 267 307 5,800 -240 Descending Potomac TRACON